Time;durP1;ratioP1;P1;durP2;ratioP2;P2;SDS_P1;SDS_P2;PMS_P1;PMS_P2;Temp;Humidity;BMP_temperature;BMP_pressure;BME280_temperature;BME280_humidity;BME280_pressure;Samples;Min_cycle;Max_cycle;Signal;HPM_P1;HPM_P2
2023/05/01 00:00:17;;;;;;;4.77;3.30;;;15.40;1.00;;;;;;4997727;28;20218;-88
2023/05/01 00:02:43;;;;;;;3.90;2.93;;;15.50;1.00;;;;;;4997378;28;20176;-86
2023/05/01 00:05:09;;;;;;;5.10;2.80;;;15.50;1.00;;;;;;4998064;28;20186;-86
2023/05/01 00:07:34;;;;;;;5.03;2.93;;;15.50;1.00;;;;;;4999974;28;20255;-85
2023/05/01 00:10:00;;;;;;;6.07;2.67;;;15.60;1.00;;;;;;5014694;28;20230;-85
2023/05/01 00:12:26;;;;;;;5.33;2.83;;;15.50;1.00;;;;;;5019297;28;20177;-85
2023/05/01 00:14:55;;;;;;;4.90;2.67;;;15.50;1.00;;;;;;5016424;28;20187;-86
2023/05/01 00:17:21;;;;;;;3.57;2.70;;;15.50;1.00;;;;;;5018681;28;20206;-85
2023/05/01 00:19:53;;;;;;;5.30;3.27;;;15.40;1.00;;;;;;5013467;28;20227;-86
2023/05/01 00:22:19;;;;;;;6.57;3.10;;;15.50;1.00;;;;;;4999355;28;20230;-86
2023/05/01 00:24:48;;;;;;;4.40;3.10;;;15.40;1.00;;;;;;4997066;28;20183;-85
2023/05/01 00:27:14;;;;;;;5.43;3.10;;;15.50;1.00;;;;;;4997168;28;20167;-86
2023/05/01 00:29:41;;;;;;;5.03;2.90;;;15.50;1.00;;;;;;5019916;28;20174;-86
2023/05/01 00:32:09;;;;;;;5.27;3.10;;;15.40;1.00;;;;;;5008719;28;20190;-86
2023/05/01 00:34:35;;;;;;;6.10;3.03;;;15.40;1.00;;;;;;5000607;28;20191;-86
2023/05/01 00:37:02;;;;;;;5.63;3.13;;;15.40;1.00;;;;;;5002485;28;20166;-86
2023/05/01 00:39:28;;;;;;;5.80;3.13;;;15.40;1.00;;;;;;5008466;28;20231;-86
2023/05/01 00:41:54;;;;;;;5.43;2.73;;;15.30;1.00;;;;;;4995858;28;20579;-87
2023/05/01 00:44:22;;;;;;;5.63;3.43;;;15.50;1.00;;;;;;4995690;28;20238;-87
2023/05/01 00:46:47;;;;;;;4.73;3.03;;;15.40;1.00;;;;;;4999427;28;20151;-86
2023/05/01 00:49:14;;;;;;;5.93;3.33;;;15.50;1.00;;;;;;5013861;28;20179;-87
2023/05/01 00:51:41;;;;;;;6.53;3.40;;;15.50;1.00;;;;;;5007691;28;20226;-87
2023/05/01 00:54:07;;;;;;;6.33;3.53;;;15.50;1.00;;;;;;5007355;28;20197;-87
2023/05/01 00:56:32;;;;;;;5.87;3.17;;;15.70;1.00;;;;;;4995214;28;20635;-88
2023/05/01 00:58:58;;;;;;;6.30;3.63;;;15.80;1.00;;;;;;4996528;28;20306;-87
2023/05/01 01:01:24;;;;;;;4.77;2.93;;;15.90;1.00;;;;;;4995153;28;20183;-87
2023/05/01 01:03:53;;;;;;;5.33;3.60;;;16.10;1.00;;;;;;4995132;28;20249;-87
2023/05/01 01:06:41;;;;;;;5.70;3.10;;;16.20;1.00;;;;;;4995088;28;20274;-86
2023/05/01 01:09:12;;;;;;;3.97;2.77;;;16.20;1.00;;;;;;4994588;28;20190;-87
2023/05/01 01:11:43;;;;;;;6.87;3.77;;;16.10;1.00;;;;;;4996080;28;20206;-87
2023/05/01 01:14:12;;;;;;;6.33;3.17;;;16.10;1.00;;;;;;4995213;28;20192;-87
2023/05/01 01:16:41;;;;;;;4.83;3.10;;;16.10;1.00;;;;;;5001732;28;20176;-86
2023/05/01 01:19:23;;;;;;;4.93;2.93;;;16.00;1.00;;;;;;5017607;28;20203;-86
2023/05/01 01:21:53;;;;;;;4.23;3.07;;;16.00;1.00;;;;;;5011736;28;20184;-87
2023/05/01 01:24:46;;;;;;;4.33;2.80;;;16.10;1.00;;;;;;4997625;28;20207;-87
2023/05/01 01:27:19;;;;;;;5.70;2.90;;;16.20;1.00;;;;;;4996008;28;20185;-87
2023/05/01 01:29:45;;;;;;;4.53;3.10;;;16.20;1.00;;;;;;5015170;28;20172;-86
2023/05/01 01:32:52;;;;;;;5.30;3.10;;;16.30;1.00;;;;;;5001298;28;20197;-87
2023/05/01 01:35:23;;;;;;;3.97;2.73;;;16.30;1.00;;;;;;4994109;28;20229;-86
2023/05/01 01:38:19;;;;;;;5.97;2.87;;;16.30;1.00;;;;;;4994814;28;20178;-86
2023/05/01 01:41:13;;;;;;;4.77;2.60;;;16.40;1.00;;;;;;4994687;28;20609;-86
2023/05/01 01:43:44;;;;;;;3.93;2.70;;;16.40;1.00;;;;;;4995374;28;20167;-86
2023/05/01 01:46:10;;;;;;;5.93;2.90;;;16.50;1.00;;;;;;4994294;28;20188;-86
2023/05/01 01:48:41;;;;;;;4.87;2.93;;;16.50;1.00;;;;;;4995229;28;20641;-86
2023/05/01 01:51:17;;;;;;;5.00;2.90;;;16.60;1.00;;;;;;4994370;28;20203;-86
2023/05/01 01:53:48;;;;;;;4.67;2.70;;;16.60;1.00;;;;;;4993868;28;20179;-86
2023/05/01 01:56:18;;;;;;;5.50;3.10;;;16.60;1.00;;;;;;4995452;28;20276;-86
2023/05/01 01:58:46;;;;;;;4.73;2.50;;;16.60;1.00;;;;;;4993923;28;20194;-86
2023/05/01 02:01:13;;;;;;;4.60;2.43;;;16.60;1.00;;;;;;4994679;28;20191;-86
2023/05/01 02:03:40;;;;;;;4.80;2.67;;;16.60;1.00;;;;;;4993932;28;20349;-87
2023/05/01 02:06:07;;;;;;;3.43;2.70;;;16.60;1.00;;;;;;4994194;28;20268;-86
2023/05/01 02:08:35;;;;;;;4.03;2.70;;;16.60;1.00;;;;;;4993884;28;20197;-86
2023/05/01 02:11:02;;;;;;;5.67;3.20;;;16.60;1.00;;;;;;4994011;28;20202;-88
2023/05/01 02:13:30;;;;;;;6.23;3.10;;;16.70;1.00;;;;;;4993684;28;20186;-88
2023/05/01 02:16:01;;;;;;;5.03;2.90;;;16.60;1.00;;;;;;4998763;28;20248;-88
2023/05/01 02:18:28;;;;;;;5.37;3.13;;;16.50;1.00;;;;;;5015116;28;20172;-87
2023/05/01 02:20:57;;;;;;;6.77;2.70;;;16.40;1.00;;;;;;4993835;28;20610;-87
2023/05/01 02:23:27;;;;;;;4.67;2.80;;;16.40;1.00;;;;;;4995012;28;20174;-88
2023/05/01 02:25:57;;;;;;;4.30;3.10;;;16.50;1.00;;;;;;5011080;28;20165;-88
2023/05/01 02:28:25;;;;;;;3.90;3.23;;;16.60;1.00;;;;;;5017974;28;20181;-88
2023/05/01 02:30:51;;;;;;;6.77;3.53;;;16.60;1.00;;;;;;5003527;28;20266;-87
2023/05/01 02:33:17;;;;;;;6.40;3.90;;;16.60;1.00;;;;;;4997028;28;20623;-88
2023/05/01 02:35:48;;;;;;;5.13;3.40;;;16.50;1.00;;;;;;4995361;28;20180;-87
2023/05/01 02:38:23;;;;;;;4.80;3.10;;;16.60;1.00;;;;;;5007538;28;20167;-86
2023/05/01 02:40:53;;;;;;;4.47;3.23;;;16.70;1.00;;;;;;4996799;28;20293;-87
2023/05/01 02:43:21;;;;;;;5.83;3.60;;;16.40;1.00;;;;;;4994615;28;20556;-87
2023/05/01 02:45:50;;;;;;;4.90;3.47;;;16.40;1.00;;;;;;5003628;28;20170;-87
2023/05/01 02:48:23;;;;;;;5.53;3.10;;;16.40;1.00;;;;;;5015460;28;20159;-86
2023/05/01 02:50:54;;;;;;;6.23;3.60;;;16.10;1.00;;;;;;5012253;28;20193;-87
2023/05/01 02:53:21;;;;;;;4.77;3.40;;;15.90;1.00;;;;;;5002372;28;20173;-88
2023/05/01 02:55:48;;;;;;;4.00;3.17;;;15.70;1.00;;;;;;5005566;28;20189;-87
2023/05/01 02:58:20;;;;;;;4.63;3.50;;;15.40;1.00;;;;;;5018012;28;20181;-87
2023/05/01 03:00:48;;;;;;;5.50;3.70;;;15.20;1.00;;;;;;5018176;28;20210;-87
2023/05/01 03:03:15;;;;;;;4.70;3.30;;;15.20;1.00;;;;;;4998575;28;20179;-87
2023/05/01 03:05:40;;;;;;;5.47;3.60;;;15.30;1.00;;;;;;4996763;28;20529;-87
2023/05/01 03:08:10;;;;;;;6.20;3.90;;;15.20;1.00;;;;;;4979724;28;20179;-88
2023/05/01 03:10:41;;;;;;;5.37;3.87;;;15.20;1.00;;;;;;5000330;28;20202;-87
2023/05/01 03:13:10;;;;;;;5.67;3.63;;;15.10;1.00;;;;;;5015040;28;20188;-87
2023/05/01 03:15:38;;;;;;;7.37;3.70;;;15.00;1.00;;;;;;5000406;28;20631;-87
2023/05/01 03:18:04;;;;;;;5.53;3.70;;;14.90;1.00;;;;;;4994131;28;20172;-87
2023/05/01 03:20:30;;;;;;;5.10;3.63;;;14.90;1.00;;;;;;4993674;28;20289;-89
2023/05/01 03:22:56;;;;;;;5.47;4.03;;;15.00;1.00;;;;;;5000906;28;20159;-86
2023/05/01 03:25:22;;;;;;;7.60;4.13;;;15.10;1.00;;;;;;5014952;28;20190;-86
2023/05/01 03:27:48;;;;;;;5.50;3.90;;;15.20;1.00;;;;;;5014660;28;20555;-87
2023/05/01 03:30:14;;;;;;;5.73;3.73;;;15.20;1.00;;;;;;5012983;28;20238;-87
2023/05/01 03:32:43;;;;;;;5.57;3.63;;;15.10;1.00;;;;;;4997758;28;20174;-86
2023/05/01 03:35:12;;;;;;;5.53;3.70;;;15.20;1.00;;;;;;4997965;28;20191;-86
2023/05/01 03:37:41;;;;;;;6.10;4.07;;;15.20;1.00;;;;;;4996740;28;20186;-88
2023/05/01 03:40:08;;;;;;;5.93;4.23;;;15.20;1.00;;;;;;4997509;28;20214;-88
2023/05/01 03:42:34;;;;;;;5.17;4.10;;;15.20;1.00;;;;;;4996405;28;20183;-88
2023/05/01 03:45:00;;;;;;;5.97;4.00;;;15.10;1.00;;;;;;5006383;28;20203;-88
2023/05/01 03:47:26;;;;;;;5.93;4.00;;;15.10;1.00;;;;;;5011338;28;20182;-89
2023/05/01 03:49:52;;;;;;;6.10;4.60;;;15.20;1.00;;;;;;4996408;28;20177;-86
2023/05/01 03:52:17;;;;;;;5.60;4.03;;;15.40;1.00;;;;;;4997582;28;20242;-87
2023/05/01 03:54:43;;;;;;;6.53;4.60;;;15.40;1.00;;;;;;4996593;28;20179;-87
2023/05/01 03:57:09;;;;;;;8.20;3.83;;;15.50;1.00;;;;;;4996091;28;20631;-87
2023/05/01 03:59:36;;;;;;;5.10;3.77;;;15.50;1.00;;;;;;4996096;28;20218;-87
2023/05/01 04:02:02;;;;;;;6.53;4.10;;;15.50;1.00;;;;;;4996141;28;20174;-87
2023/05/01 04:04:28;;;;;;;6.90;3.90;;;15.50;1.00;;;;;;4996684;28;20171;-86
2023/05/01 04:06:54;;;;;;;6.63;3.90;;;15.60;1.00;;;;;;5009256;28;20159;-86
2023/05/01 04:09:19;;;;;;;5.63;4.10;;;15.60;1.00;;;;;;5008424;28;20242;-87
2023/05/01 04:11:45;;;;;;;4.50;3.77;;;15.60;1.00;;;;;;4996200;28;20210;-87
2023/05/01 04:14:11;;;;;;;5.57;3.83;;;15.60;1.00;;;;;;4996327;28;20618;-87
2023/05/01 04:16:36;;;;;;;6.27;4.10;;;15.60;1.00;;;;;;4995954;28;20266;-86
2023/05/01 04:19:02;;;;;;;5.17;3.80;;;15.60;1.00;;;;;;4996622;28;20729;-87
2023/05/01 04:21:28;;;;;;;6.03;4.53;;;15.70;1.00;;;;;;4995928;28;20258;-87
2023/05/01 04:23:54;;;;;;;7.13;4.43;;;15.70;1.00;;;;;;4995748;28;20267;-87
2023/05/01 04:26:19;;;;;;;5.87;4.00;;;15.70;1.00;;;;;;4995523;28;20206;-88
2023/05/01 04:28:45;;;;;;;6.67;4.00;;;15.70;1.00;;;;;;4995835;28;20727;-87
2023/05/01 04:31:11;;;;;;;5.83;4.17;;;15.70;1.00;;;;;;4995512;28;20175;-86
2023/05/01 04:33:37;;;;;;;5.73;3.93;;;15.70;1.00;;;;;;5003353;28;20183;-85
2023/05/01 04:36:03;;;;;;;6.07;4.47;;;15.70;1.00;;;;;;5012923;28;20242;-85
2023/05/01 04:38:30;;;;;;;4.97;3.80;;;15.70;1.00;;;;;;5013403;28;20194;-87
2023/05/01 04:40:55;;;;;;;5.87;4.03;;;15.70;1.00;;;;;;4999004;28;20245;-89
2023/05/01 04:43:24;;;;;;;6.07;4.40;;;15.50;1.00;;;;;;4995528;28;20183;-87
2023/05/01 04:45:50;;;;;;;6.03;4.70;;;15.40;1.00;;;;;;4995174;28;20178;-86
2023/05/01 04:48:16;;;;;;;4.80;3.90;;;15.20;1.00;;;;;;4995716;28;20175;-86
2023/05/01 04:50:43;;;;;;;8.33;4.37;;;15.20;1.00;;;;;;5002717;28;20678;-88
2023/05/01 04:53:08;;;;;;;6.23;4.27;;;15.30;1.00;;;;;;5011707;28;20176;-87
2023/05/01 04:55:34;;;;;;;4.80;4.00;;;15.30;1.00;;;;;;4995429;28;20183;-86
2023/05/01 04:58:02;;;;;;;5.37;4.20;;;15.30;1.00;;;;;;4995370;28;20207;-88
2023/05/01 05:00:28;;;;;;;5.70;4.53;;;15.30;1.00;;;;;;4995512;28;20215;-88
2023/05/01 05:02:54;;;;;;;4.70;3.90;;;15.30;1.00;;;;;;4996598;28;20173;-88
2023/05/01 05:05:20;;;;;;;7.63;4.13;;;15.30;1.00;;;;;;5019543;28;20177;-86
2023/05/01 05:07:47;;;;;;;7.13;4.33;;;15.20;1.00;;;;;;5004600;28;20177;-87
2023/05/01 05:10:13;;;;;;;8.27;4.40;;;15.10;1.00;;;;;;4996132;28;20263;-88
2023/05/01 05:12:40;;;;;;;5.37;4.20;;;15.00;1.00;;;;;;4979323;28;20191;-88
2023/05/01 05:15:06;;;;;;;6.47;4.50;;;15.00;1.00;;;;;;4995212;28;20205;-85
2023/05/01 05:17:32;;;;;;;6.30;4.13;;;15.00;1.00;;;;;;4994911;28;20175;-86
2023/05/01 05:19:58;;;;;;;6.77;4.03;;;15.00;1.00;;;;;;4995014;28;20221;-88
2023/05/01 05:22:24;;;;;;;5.70;4.70;;;15.10;1.00;;;;;;4995180;28;20177;-87
2023/05/01 05:24:58;;;;;;;6.03;4.03;;;15.10;1.00;;;;;;4996140;28;20175;-87
2023/05/01 05:27:27;;;;;;;7.23;5.03;;;15.30;1.00;;;;;;5010614;28;20166;-85
2023/05/01 05:30:07;;;;;;;5.00;4.17;;;15.40;1.00;;;;;;5004528;28;20577;-88
2023/05/01 05:32:33;;;;;;;7.13;5.03;;;15.40;1.00;;;;;;4979891;28;20271;-88
2023/05/01 05:35:00;;;;;;;6.63;4.53;;;15.20;1.00;;;;;;4996739;28;20237;-87
2023/05/01 05:37:26;;;;;;;6.53;4.73;;;15.10;1.00;;;;;;4997933;28;20209;-87
2023/05/01 05:39:52;;;;;;;6.53;5.17;;;15.20;1.00;;;;;;5009382;28;20223;-87
2023/05/01 05:42:17;;;;;;;7.80;5.47;;;15.20;1.00;;;;;;5017653;28;20249;-86
2023/05/01 05:44:47;;;;;;;9.73;5.70;;;15.10;1.00;;;;;;5011227;28;20187;-86
2023/05/01 05:47:13;;;;;;;7.17;5.83;;;15.00;1.00;;;;;;4997113;28;20227;-89
2023/05/01 05:49:38;;;;;;;7.23;5.60;;;15.10;1.00;;;;;;4998313;28;20205;-88
2023/05/01 05:52:04;;;;;;;7.70;5.57;;;15.00;1.00;;;;;;5012819;28;20179;-87
2023/05/01 05:54:30;;;;;;;8.33;5.30;;;14.90;1.00;;;;;;5015236;28;20178;-87
2023/05/01 05:56:55;;;;;;;7.93;5.90;;;14.90;1.00;;;;;;5013742;28;20194;-88
2023/05/01 05:59:21;;;;;;;7.60;5.73;;;15.00;1.00;;;;;;5006133;28;20224;-89
2023/05/01 06:01:47;;;;;;;6.43;5.33;;;14.90;1.00;;;;;;4994840;28;20269;-88
2023/05/01 06:04:13;;;;;;;7.50;5.80;;;15.00;1.00;;;;;;4994275;28;20210;-86
2023/05/01 06:06:39;;;;;;;12.13;6.60;;;15.20;1.00;;;;;;4993925;28;20410;-85
2023/05/01 06:09:09;;;;;;;9.90;5.70;;;15.30;1.00;;;;;;4994237;28;20632;-86
2023/05/01 06:11:35;;;;;;;7.50;6.50;;;15.30;1.00;;;;;;4994214;28;20195;-86
2023/05/01 06:14:02;;;;;;;7.70;6.00;;;15.00;1.00;;;;;;4993940;28;20182;-88
2023/05/01 06:16:31;;;;;;;7.53;6.77;;;14.90;1.00;;;;;;4994441;28;20179;-88
2023/05/01 06:18:57;;;;;;;8.13;7.40;;;15.00;1.00;;;;;;4995360;28;20693;-87
2023/05/01 06:21:22;;;;;;;10.30;7.60;;;15.10;1.00;;;;;;4994274;28;20269;-86
2023/05/01 06:23:48;;;;;;;10.27;7.47;;;15.30;1.00;;;;;;4994045;28;20178;-85
2023/05/01 06:26:14;;;;;;;8.13;7.30;;;15.20;1.00;;;;;;4995283;28;20535;-85
2023/05/01 06:28:39;;;;;;;8.53;7.57;;;15.30;1.00;;;;;;4994914;28;20187;-84
2023/05/01 06:31:05;;;;;;;10.77;8.37;;;15.30;1.00;;;;;;4979157;28;20250;-88
2023/05/01 06:33:33;;;;;;;9.43;7.90;;;15.30;1.00;;;;;;4994428;28;20178;-87
2023/05/01 06:35:59;;;;;;;9.53;7.70;;;15.30;1.00;;;;;;5000202;28;20164;-87
2023/05/01 06:38:26;;;;;;;9.03;7.47;;;15.30;1.00;;;;;;5012459;28;20182;-86
2023/05/01 06:40:52;;;;;;;8.97;8.07;;;15.40;1.00;;;;;;5014867;28;20230;-85
2023/05/01 06:43:29;;;;;;;8.33;7.43;;;15.40;1.00;;;;;;5017363;28;20170;-85
2023/05/01 06:46:01;;;;;;;8.50;7.70;;;15.50;1.00;;;;;;5017748;28;20167;-86
2023/05/01 06:48:29;;;;;;;10.43;9.47;;;15.50;1.00;;;;;;5014389;28;20184;-85
2023/05/01 06:50:58;;;;;;;12.43;11.13;;;15.60;1.00;;;;;;5008238;28;20206;-86
2023/05/01 06:53:24;;;;;;;19.80;15.10;;;15.70;1.00;;;;;;5014600;28;20171;-85
2023/05/01 06:55:50;;;;;;;16.80;15.20;;;15.70;1.00;;;;;;5007143;28;20190;-86
2023/05/01 06:58:16;;;;;;;19.53;17.63;;;15.80;1.00;;;;;;5003071;28;20214;-86
2023/05/01 07:00:41;;;;;;;22.73;19.80;;;15.80;1.00;;;;;;5015502;28;20198;-87
2023/05/01 07:03:07;;;;;;;21.30;19.20;;;15.40;1.00;;;;;;5014067;28;20186;-87
2023/05/01 07:05:33;;;;;;;22.03;19.83;;;15.20;1.00;;;;;;5017489;28;20178;-87
2023/05/01 07:08:00;;;;;;;23.13;20.63;;;15.10;1.00;;;;;;5002053;28;20249;-88
2023/05/01 07:10:26;;;;;;;21.67;19.47;;;15.10;1.00;;;;;;5001668;28;20178;-86
2023/05/01 07:12:51;;;;;;;22.40;20.10;;;15.00;1.00;;;;;;4998079;28;20184;-87
2023/05/01 07:15:18;;;;;;;20.93;18.83;;;15.10;1.00;;;;;;4998635;28;20618;-87
2023/05/01 07:17:45;;;;;;;21.73;19.53;;;15.10;1.00;;;;;;4997515;28;20265;-88
2023/05/01 07:20:11;;;;;;;24.53;20.00;;;15.30;1.00;;;;;;4998415;28;20218;-87
2023/05/01 07:22:37;;;;;;;22.10;19.80;;;15.40;1.00;;;;;;4997481;28;20171;-86
2023/05/01 07:25:02;;;;;;;21.70;19.50;;;15.40;1.00;;;;;;4997575;28;20260;-86
2023/05/01 07:27:28;;;;;;;22.67;20.37;;;15.40;1.00;;;;;;5000721;28;20178;-87
2023/05/01 07:29:56;;;;;;;21.67;19.57;;;15.40;1.00;;;;;;5017253;28;20179;-88
2023/05/01 07:32:22;;;;;;;22.87;20.40;;;15.40;1.00;;;;;;5019288;28;20167;-87
2023/05/01 07:34:47;;;;;;;22.23;19.93;;;15.50;1.00;;;;;;5019267;28;20218;-87
2023/05/01 07:37:14;;;;;;;22.90;20.43;;;15.50;1.00;;;;;;5020229;28;20161;-86
2023/05/01 07:39:40;;;;;;;24.00;21.43;;;15.50;1.00;;;;;;5020053;28;20212;-84
2023/05/01 07:42:05;;;;;;;23.80;21.27;;;15.60;1.00;;;;;;5000396;28;20179;-85
2023/05/01 07:44:31;;;;;;;24.70;22.07;;;15.60;1.00;;;;;;4998281;28;20238;-87
2023/05/01 07:47:02;;;;;;;23.83;21.33;;;15.70;1.00;;;;;;4998177;28;20171;-88
2023/05/01 07:49:36;;;;;;;25.17;22.13;;;15.70;1.00;;;;;;4997116;28;20163;-88
2023/05/01 07:52:06;;;;;;;26.33;23.07;;;15.70;1.00;;;;;;4997027;28;20171;-87
2023/05/01 07:54:35;;;;;;;25.37;22.77;;;15.70;1.00;;;;;;4997288;28;20167;-87
2023/05/01 07:57:01;;;;;;;26.80;24.10;;;15.60;1.00;;;;;;4997798;28;20221;-86
2023/05/01 07:59:27;;;;;;;27.23;24.33;;;15.60;1.00;;;;;;4997264;28;20281;-86
2023/05/01 08:01:53;;;;;;;27.73;24.77;;;15.60;1.00;;;;;;5014434;28;20143;-88
2023/05/01 08:04:21;;;;;;;27.47;24.57;;;15.50;1.00;;;;;;5013768;28;20175;-87
2023/05/01 08:06:51;;;;;;;27.27;24.10;;;15.60;1.00;;;;;;4999757;28;20171;-87
2023/05/01 08:09:17;;;;;;;28.53;25.53;;;15.60;1.00;;;;;;5013843;28;20179;-87
2023/05/01 08:11:43;;;;;;;29.33;26.30;;;15.70;1.00;;;;;;5009796;28;20171;-86
2023/05/01 08:14:09;;;;;;;30.07;26.67;;;15.70;1.00;;;;;;5000090;28;20297;-87
2023/05/01 08:16:35;;;;;;;29.77;26.60;;;15.80;1.00;;;;;;5019077;28;20179;-86
2023/05/01 08:19:02;;;;;;;30.30;27.10;;;15.80;1.00;;;;;;5001373;28;20198;-90
2023/05/01 08:21:28;;;;;;;32.87;29.10;;;16.00;1.00;;;;;;4997091;28;20194;-89
2023/05/01 08:23:57;;;;;;;28.97;25.97;;;16.10;1.00;;;;;;4980043;28;20190;-88
2023/05/01 08:26:23;;;;;;;31.57;27.43;;;16.10;1.00;;;;;;4997013;28;20175;-87
2023/05/01 08:28:49;;;;;;;31.57;27.97;;;16.20;1.00;;;;;;4997065;28;20175;-87
2023/05/01 08:31:15;;;;;;;32.33;28.93;;;16.40;1.00;;;;;;4996057;28;20807;-88
2023/05/01 08:33:41;;;;;;;31.00;27.70;;;16.60;1.00;;;;;;4996234;28;20199;-89
2023/05/01 08:36:09;;;;;;;31.90;28.00;;;16.50;1.00;;;;;;4996116;28;20174;-88
2023/05/01 08:38:35;;;;;;;30.67;27.43;;;16.40;1.00;;;;;;4997310;28;20183;-88
2023/05/01 08:41:02;;;;;;;31.73;28.43;;;16.40;1.00;;;;;;4998810;28;20207;-85
2023/05/01 08:43:31;;;;;;;32.57;29.17;;;16.50;1.00;;;;;;5008044;28;20175;-88
2023/05/01 08:46:03;;;;;;;33.03;29.60;;;16.50;1.00;;;;;;4998666;28;20270;-87
2023/05/01 08:48:31;;;;;;;31.97;28.67;;;16.40;1.00;;;;;;4996664;28;20175;-88
2023/05/01 08:50:59;;;;;;;32.67;29.30;;;16.30;1.00;;;;;;4998374;28;20247;-87
2023/05/01 08:53:26;;;;;;;33.90;30.10;;;16.30;1.00;;;;;;4997804;28;20187;-85
2023/05/01 08:55:59;;;;;;;36.97;31.57;;;16.20;1.00;;;;;;5011168;28;20245;-90
2023/05/01 08:58:27;;;;;;;34.47;30.67;;;16.20;1.00;;;;;;5012049;28;20265;-86
2023/05/01 09:00:57;;;;;;;35.77;31.57;;;16.10;1.00;;;;;;5003659;28;20217;-87
2023/05/01 09:03:23;;;;;;;34.43;30.73;;;16.30;1.00;;;;;;4998209;28;20590;-87
2023/05/01 09:05:50;;;;;;;36.40;30.97;;;16.30;1.00;;;;;;4982589;28;20246;-88
2023/05/01 09:08:15;;;;;;;35.20;31.47;;;16.30;1.00;;;;;;5001954;28;20197;-88
2023/05/01 09:10:45;;;;;;;36.17;32.30;;;16.30;1.00;;;;;;4997482;28;20183;-87
2023/05/01 09:13:11;;;;;;;37.87;32.97;;;16.20;1.00;;;;;;4998355;28;20179;-88
2023/05/01 09:15:40;;;;;;;35.93;32.13;;;16.10;1.00;;;;;;5000738;28;20175;-89
2023/05/01 09:18:07;;;;;;;38.90;32.93;;;16.20;1.00;;;;;;5005303;28;20171;-88
2023/05/01 09:21:08;;;;;;;39.70;33.53;;;16.10;1.00;;;;;;5010742;28;20233;-88
2023/05/01 09:23:42;;;;;;;37.47;32.17;;;16.20;1.00;;;;;;5011406;28;20667;-88
2023/05/01 09:26:51;;;;;;;40.73;34.53;;;16.00;1.00;;;;;;5009630;28;20198;-88
2023/05/01 09:29:48;;;;;;;36.53;32.63;;;16.10;1.00;;;;;;4999164;28;20210;-88
2023/05/01 09:32:23;;;;;;;36.23;32.30;;;16.20;1.00;;;;;;5016729;28;20210;-88
2023/05/01 09:34:54;;;;;;;39.67;32.60;;;16.30;1.00;;;;;;5001764;28;20274;-85
2023/05/01 09:37:31;;;;;;;36.10;32.20;;;16.50;1.00;;;;;;4997638;28;20221;-86
2023/05/01 09:40:15;;;;;;;38.27;34.17;;;16.60;1.00;;;;;;4995878;28;20214;-87
2023/05/01 09:42:49;;;;;;;37.53;30.90;;;16.70;1.00;;;;;;4995170;28;20180;-87
2023/05/01 09:45:15;;;;;;;35.70;31.97;;;16.70;1.00;;;;;;4996372;28;20653;-87
2023/05/01 09:47:45;;;;;;;35.20;31.40;;;16.90;1.00;;;;;;4997435;28;20228;-86
2023/05/01 09:50:31;;;;;;;34.40;30.90;;;16.90;1.00;;;;;;4996459;28;20181;-87
2023/05/01 09:52:59;;;;;;;33.90;30.33;;;16.80;1.00;;;;;;4995965;28;20187;-88
2023/05/01 09:55:25;;;;;;;34.37;30.23;;;16.70;1.00;;;;;;4995246;28;20666;-88
2023/05/01 09:57:51;;;;;;;34.07;29.93;;;16.80;1.00;;;;;;4995342;28;20185;-86
2023/05/01 10:00:20;;;;;;;33.17;29.57;;;16.90;1.00;;;;;;4996944;28;20330;-86
2023/05/01 10:02:49;;;;;;;31.50;28.03;;;17.10;1.00;;;;;;5002868;28;20178;-87
2023/05/01 10:05:15;;;;;;;32.30;28.90;;;17.40;1.00;;;;;;5010196;28;20187;-88
2023/05/01 10:07:58;;;;;;;31.70;28.37;;;17.40;1.00;;;;;;5013637;28;20254;-89
2023/05/01 10:10:27;;;;;;;28.07;25.07;;;17.50;1.00;;;;;;5009065;28;20180;-87
2023/05/01 10:12:54;;;;;;;27.77;24.90;;;17.20;1.00;;;;;;5000435;28;20173;-87
2023/05/01 10:15:21;;;;;;;28.13;24.77;;;17.20;1.00;;;;;;4999964;28;20177;-88
2023/05/01 10:17:50;;;;;;;27.20;24.30;;;17.10;1.00;;;;;;4996029;28;20241;-89
2023/05/01 10:20:16;;;;;;;25.57;22.43;;;17.10;1.00;;;;;;4995017;28;20571;-87
2023/05/01 10:22:43;;;;;;;27.57;24.50;;;17.10;1.00;;;;;;4995218;28;20254;-87
2023/05/01 10:25:13;;;;;;;26.07;23.47;;;17.20;1.00;;;;;;4996058;28;20213;-87
2023/05/01 10:27:40;;;;;;;26.53;23.80;;;17.20;1.00;;;;;;5001750;28;20237;-87
2023/05/01 10:30:07;;;;;;;27.00;24.10;;;17.30;1.00;;;;;;4996112;28;20276;-88
2023/05/01 10:32:34;;;;;;;27.40;24.50;;;17.40;1.00;;;;;;4995720;28;20175;-88
2023/05/01 10:35:24;;;;;;;26.50;23.70;;;17.40;1.00;;;;;;4999424;28;20310;-87
2023/05/01 10:37:56;;;;;;;28.00;23.97;;;17.40;1.00;;;;;;4997251;28;20175;-88
2023/05/01 10:40:42;;;;;;;26.93;24.03;;;17.20;1.00;;;;;;4995363;28;20214;-88
2023/05/01 10:43:28;;;;;;;28.03;23.83;;;17.10;1.00;;;;;;5001975;28;20181;-86
2023/05/01 10:46:25;;;;;;;27.33;24.47;;;16.90;1.00;;;;;;5000185;28;20174;-88
2023/05/01 10:48:56;;;;;;;25.80;23.00;;;17.10;1.00;;;;;;5017861;28;20185;-88
2023/05/01 10:51:23;;;;;;;25.37;22.77;;;17.20;1.00;;;;;;5009596;28;20193;-86
2023/05/01 10:54:12;;;;;;;26.13;23.53;;;17.30;1.00;;;;;;5020192;28;20167;-88
2023/05/01 10:56:41;;;;;;;25.87;23.07;;;17.40;1.00;;;;;;5021259;28;20174;-86
2023/05/01 10:59:11;;;;;;;25.57;22.83;;;17.50;1.00;;;;;;5007916;28;20205;-87
2023/05/01 11:01:47;;;;;;;24.00;21.43;;;17.50;1.00;;;;;;5004328;28;20179;-87
2023/05/01 11:04:20;;;;;;;23.73;20.93;;;17.50;1.00;;;;;;5005187;28;20201;-85
2023/05/01 11:07:04;;;;;;;24.67;21.77;;;17.30;1.00;;;;;;5013664;28;20172;-86
2023/05/01 11:09:53;;;;;;;23.33;20.93;;;17.40;1.00;;;;;;5002106;28;20667;-89
2023/05/01 11:12:46;;;;;;;22.43;19.27;;;17.40;1.00;;;;;;5000687;28;20314;-87
2023/05/01 11:15:33;;;;;;;20.83;18.67;;;17.50;1.00;;;;;;5000538;28;20173;-88
2023/05/01 11:18:02;;;;;;;19.47;17.63;;;17.50;1.00;;;;;;5000241;28;20653;-88
2023/05/01 11:20:29;;;;;;;19.30;17.23;;;17.50;1.00;;;;;;4998593;28;20352;-88
2023/05/01 11:22:58;;;;;;;19.70;17.67;;;17.60;1.00;;;;;;5014197;28;20187;-89
2023/05/01 11:25:26;;;;;;;18.20;16.23;;;17.80;1.00;;;;;;5008663;28;20163;-88
2023/05/01 11:27:56;;;;;;;18.43;15.43;;;17.70;1.00;;;;;;4997885;28;20575;-89
2023/05/01 11:30:22;;;;;;;17.27;15.43;;;17.80;1.00;;;;;;4998227;28;20264;-85
2023/05/01 11:32:49;;;;;;;15.07;13.20;;;17.90;1.00;;;;;;4998220;28;20216;-87
2023/05/01 11:35:17;;;;;;;16.77;12.40;;;17.80;1.00;;;;;;4998869;28;20231;-87
2023/05/01 11:37:44;;;;;;;13.37;11.07;;;17.80;1.00;;;;;;4998104;28;20225;-87
2023/05/01 11:40:24;;;;;;;13.17;11.07;;;17.90;1.00;;;;;;4982425;28;20207;-87
2023/05/01 11:42:58;;;;;;;12.53;10.47;;;17.70;1.00;;;;;;4998707;28;20175;-86
2023/05/01 11:45:24;;;;;;;16.30;12.47;;;17.70;1.00;;;;;;5001431;28;20235;-88
2023/05/01 11:47:51;;;;;;;12.40;11.10;;;17.90;1.00;;;;;;4995056;28;20238;-88
2023/05/01 11:50:19;;;;;;;12.50;11.20;;;17.90;1.00;;;;;;5020086;28;20177;-87
2023/05/01 11:52:52;;;;;;;13.37;12.07;;;17.70;1.00;;;;;;5016066;28;20183;-86
2023/05/01 11:55:18;;;;;;;13.90;12.40;;;17.70;1.00;;;;;;5000487;28;20187;-88
2023/05/01 11:57:48;;;;;;;15.03;12.57;;;17.70;1.00;;;;;;4998414;28;20198;-88
2023/05/01 12:00:36;;;;;;;13.13;11.70;;;17.70;1.00;;;;;;4997689;28;20210;-86
2023/05/01 12:03:19;;;;;;;14.90;13.27;;;17.70;1.00;;;;;;4997480;28;20186;-87
2023/05/01 12:05:45;;;;;;;15.30;13.27;;;17.60;1.00;;;;;;4997220;28;20172;-90
2023/05/01 12:08:22;;;;;;;15.13;13.53;;;17.50;1.00;;;;;;4997246;28;20182;-86
2023/05/01 12:10:56;;;;;;;14.83;13.23;;;17.50;1.00;;;;;;4981719;28;20179;-88
2023/05/01 12:13:22;;;;;;;14.77;13.27;;;17.60;1.00;;;;;;4982460;28;20185;-86
2023/05/01 12:15:54;;;;;;;16.37;14.50;;;17.80;1.00;;;;;;4999822;28;20175;-87
2023/05/01 12:18:21;;;;;;;15.60;12.87;;;18.00;1.00;;;;;;5006351;28;20254;-86
2023/05/01 12:20:50;;;;;;;17.87;14.73;;;17.90;1.00;;;;;;5003372;28;20233;-85
2023/05/01 12:23:17;;;;;;;17.33;14.40;;;17.70;1.00;;;;;;5014992;28;20208;-88
2023/05/01 12:25:44;;;;;;;16.13;14.43;;;17.70;1.00;;;;;;5004392;28;20189;-88
2023/05/01 12:28:18;;;;;;;17.87;15.73;;;17.90;1.00;;;;;;4999553;28;20338;-87
2023/05/01 12:30:48;;;;;;;20.53;18.17;;;17.70;1.00;;;;;;4998917;28;20629;-89
2023/05/01 12:33:21;;;;;;;18.43;16.53;;;17.80;1.00;;;;;;4998957;28;20269;-88
2023/05/01 12:35:49;;;;;;;18.47;15.77;;;18.00;1.00;;;;;;4998335;28;20174;-88
2023/05/01 12:38:20;;;;;;;17.10;15.30;;;18.00;1.00;;;;;;4999293;28;20201;-89
2023/05/01 12:40:53;;;;;;;20.60;15.33;;;18.10;1.00;;;;;;4997960;28;20527;-88
2023/05/01 12:43:32;;;;;;;17.80;15.90;;;18.30;1.00;;;;;;4998988;28;20197;-87
2023/05/01 12:46:00;;;;;;;16.03;14.33;;;18.30;1.00;;;;;;4999157;28;20180;-87
2023/05/01 12:48:26;;;;;;;17.67;15.70;;;18.20;1.00;;;;;;4999492;28;20179;-87
2023/05/01 12:50:55;;;;;;;16.77;15.03;;;18.20;1.00;;;;;;5001292;28;20272;-88
2023/05/01 12:53:26;;;;;;;18.37;16.47;;;17.90;1.00;;;;;;5004745;28;20210;-88
2023/05/01 12:55:55;;;;;;;17.73;15.93;;;17.80;1.00;;;;;;5006555;28;20187;-87
2023/05/01 12:58:22;;;;;;;19.13;16.40;;;17.60;1.00;;;;;;5007120;28;20190;-88